createdAt,value
2019-04-27T00:01:18.278Z,10.79
2019-04-27T00:03:48.150Z,10.75
2019-04-27T00:06:18.064Z,10.82
2019-04-27T00:08:47.945Z,10.80
2019-04-27T00:11:20.854Z,10.82
2019-04-27T00:13:49.163Z,10.79
2019-04-27T00:16:23.422Z,10.70
2019-04-27T00:18:54.861Z,10.80
2019-04-27T00:21:40.627Z,10.82
2019-04-27T00:24:08.934Z,10.83
2019-04-27T00:26:37.237Z,10.82
2019-04-27T00:29:05.541Z,10.77
2019-04-27T00:31:33.858Z,10.70
2019-04-27T00:34:03.602Z,10.75
2019-04-27T00:36:36.523Z,10.76
2019-04-27T00:39:23.088Z,10.76
2019-04-27T00:41:53.148Z,10.81
2019-04-27T00:44:21.558Z,10.82
2019-04-27T00:46:49.801Z,10.75
2019-04-27T00:49:20.254Z,10.74
2019-04-27T00:51:48.103Z,10.76
2019-04-27T00:54:16.390Z,10.72
2019-04-27T00:56:55.097Z,10.65
2019-04-27T00:59:30.814Z,10.66
2019-04-27T01:02:09.443Z,10.60
2019-04-27T01:04:37.800Z,10.60
2019-04-27T01:07:06.416Z,10.53
2019-04-27T01:09:35.192Z,10.44
2019-04-27T01:12:04.699Z,10.51
2019-04-27T01:14:34.293Z,10.53
2019-04-27T01:17:02.920Z,10.53
2019-04-27T01:19:31.156Z,10.46
2019-04-27T01:21:59.450Z,10.52
2019-04-27T01:24:28.715Z,10.48
2019-04-27T01:27:05.183Z,10.45
2019-04-27T01:29:35.073Z,10.44
2019-04-27T01:32:04.733Z,10.36
2019-04-27T01:34:32.979Z,10.34
2019-04-27T01:37:01.263Z,10.44
2019-04-27T01:39:29.790Z,10.48
2019-04-27T01:41:59.053Z,10.50
2019-04-27T01:44:29.343Z,10.51
2019-04-27T01:46:57.573Z,10.51
2019-04-27T01:49:25.857Z,10.42
2019-04-27T01:51:54.096Z,10.46
2019-04-27T01:54:24.046Z,10.45
2019-04-27T01:56:52.290Z,10.44
2019-04-27T01:59:20.583Z,10.45
2019-04-27T02:01:53.255Z,10.44
2019-04-27T02:04:25.943Z,10.32
2019-04-27T02:06:55.827Z,10.27
2019-04-27T02:09:24.574Z,10.27
2019-04-27T02:11:52.813Z,10.28
2019-04-27T02:14:21.088Z,10.33
2019-04-27T02:16:49.418Z,10.32
2019-04-27T02:19:19.403Z,10.29
2019-04-27T02:21:51.093Z,10.31
2019-04-27T02:24:18.618Z,10.32
2019-04-27T02:26:47.101Z,10.35
2019-04-27T02:29:22.745Z,10.28
2019-04-27T02:32:03.040Z,10.21
2019-04-27T02:34:50.473Z,10.23
2019-04-27T02:37:20.096Z,10.12
2019-04-27T02:39:49.983Z,10.09
2019-04-27T02:42:20.082Z,10.06
2019-04-27T02:44:49.386Z,9.99
2019-04-27T02:47:20.568Z,10.01
2019-04-27T02:49:50.738Z,9.96
2019-04-27T02:52:20.220Z,9.93
2019-04-27T02:54:50.551Z,9.96
2019-04-27T02:57:19.893Z,9.96
2019-04-27T02:59:50.252Z,9.93
2019-04-27T03:02:25.933Z,9.98
2019-04-27T03:04:54.174Z,9.94
2019-04-27T03:07:22.474Z,9.95
2019-04-27T03:09:51.297Z,9.95
2019-04-27T03:12:21.421Z,9.94
2019-04-27T03:14:53.997Z,9.97
2019-04-27T03:17:23.872Z,9.97
2019-04-27T03:20:05.716Z,10.00
2019-04-27T03:22:35.588Z,9.95
2019-04-27T03:25:10.598Z,9.87
2019-04-27T03:27:40.988Z,9.87
2019-04-27T03:30:12.157Z,9.84
2019-04-27T03:32:43.100Z,9.93
2019-04-27T03:35:12.735Z,10.02
2019-04-27T03:37:40.570Z,10.06
2019-04-27T03:40:10.304Z,10.10
2019-04-27T03:42:40.612Z,10.17
2019-04-27T03:45:10.772Z,10.23
2019-04-27T03:47:40.724Z,10.21
2019-04-27T03:50:12.326Z,10.18
2019-04-27T03:52:49.952Z,10.12
2019-04-27T03:55:22.602Z,10.18
2019-04-27T03:58:11.805Z,10.23
2019-04-27T04:00:39.824Z,10.20
2019-04-27T04:03:10.543Z,10.20
2019-04-27T04:05:39.811Z,10.12
2019-04-27T04:08:10.687Z,10.14
2019-04-27T04:10:41.793Z,10.13
2019-04-27T04:13:14.282Z,10.09
2019-04-27T04:16:02.437Z,10.00
2019-04-27T04:18:32.311Z,10.00
2019-04-27T04:21:00.670Z,10.02
2019-04-27T04:23:30.055Z,10.06
2019-04-27T04:25:59.766Z,10.05
2019-04-27T04:28:29.652Z,10.10
2019-04-27T04:31:00.414Z,10.07
2019-04-27T04:33:30.218Z,9.87
2019-04-27T04:35:59.693Z,9.76
2019-04-27T04:38:30.221Z,9.69
2019-04-27T04:40:59.598Z,9.69
2019-04-27T04:43:41.730Z,9.73
2019-04-27T04:46:29.818Z,9.83
2019-04-27T04:49:00.046Z,9.94
2019-04-27T04:51:30.305Z,10.11
2019-04-27T04:53:59.852Z,10.18
2019-04-27T04:56:29.182Z,10.21
2019-04-27T04:58:59.949Z,10.31
2019-04-27T05:01:29.895Z,10.38
2019-04-27T05:03:59.042Z,10.48
2019-04-27T05:06:29.233Z,10.55
2019-04-27T05:08:59.350Z,10.59
2019-04-27T05:11:27.507Z,10.70
2019-04-27T05:13:55.803Z,10.75
2019-04-27T05:16:24.045Z,10.84
2019-04-27T05:18:52.285Z,10.99
2019-04-27T05:21:22.205Z,11.12
2019-04-27T05:23:50.443Z,11.26
2019-04-27T05:26:19.015Z,11.46
2019-04-27T05:28:49.170Z,11.58
2019-04-27T05:31:19.379Z,11.73
2019-04-27T05:33:49.074Z,11.88
2019-04-27T05:36:19.295Z,12.02
2019-04-27T05:38:49.663Z,12.17
2019-04-27T05:41:18.747Z,12.31
2019-04-27T05:43:59.148Z,12.41
2019-04-27T05:46:35.413Z,12.52
2019-04-27T05:49:06.027Z,12.75
2019-04-27T05:51:36.629Z,12.91
2019-04-27T05:53:59.752Z,13.01
2019-04-27T05:56:28.892Z,13.14
2019-04-27T05:58:57.337Z,13.24
2019-04-27T06:01:25.576Z,13.13
2019-04-27T06:03:53.858Z,13.16
2019-04-27T06:06:22.099Z,13.14
2019-04-27T06:08:50.389Z,13.25
2019-04-27T06:11:19.658Z,13.34
2019-04-27T06:13:49.234Z,13.48
2019-04-27T06:16:19.351Z,13.42
2019-04-27T06:18:49.354Z,13.35
2019-04-27T06:21:19.452Z,13.30
2019-04-27T06:23:48.759Z,13.20
2019-04-27T06:26:17.182Z,13.11
2019-04-27T06:28:45.442Z,13.13
2019-04-27T06:31:13.711Z,13.09
2019-04-27T06:33:41.946Z,13.10
2019-04-27T06:36:10.260Z,13.05
2019-04-27T06:38:39.371Z,13.02
2019-04-27T06:41:09.985Z,13.04
2019-04-27T06:43:38.017Z,13.13
2019-04-27T06:46:06.312Z,13.09
2019-04-27T06:48:34.544Z,13.05
2019-04-27T06:51:05.551Z,13.06
2019-04-27T06:53:32.787Z,13.07
2019-04-27T06:56:01.049Z,13.04
2019-04-27T06:58:29.378Z,13.02
2019-04-27T07:00:59.375Z,13.11
2019-04-27T07:03:28.886Z,13.24
2019-04-27T07:05:58.840Z,13.24
2019-04-27T07:08:28.703Z,13.22
2019-04-27T07:10:58.796Z,13.21
2019-04-27T07:13:28.987Z,13.23
2019-04-27T07:15:57.391Z,13.27
2019-04-27T07:18:25.626Z,13.30
2019-04-27T07:20:53.911Z,13.33
2019-04-27T07:23:22.134Z,13.35
2019-04-27T07:25:50.364Z,13.42
2019-04-27T07:28:19.098Z,13.48
2019-04-27T07:30:48.796Z,13.56
2019-04-27T07:33:18.642Z,13.65
2019-04-27T07:35:48.945Z,13.77
2019-04-27T07:38:17.062Z,13.95
2019-04-27T07:40:45.299Z,14.08
2019-04-27T07:43:30.219Z,14.21
2019-04-27T07:45:59.071Z,14.27
2019-04-27T07:48:28.528Z,14.33
2019-04-27T07:50:58.976Z,14.62
2019-04-27T07:53:29.078Z,14.84
2019-04-27T07:55:57.153Z,14.96
2019-04-27T07:58:25.420Z,15.04
2019-04-27T08:00:53.657Z,15.26
2019-04-27T08:03:21.937Z,15.27
2019-04-27T08:05:50.168Z,15.53
2019-04-27T08:08:19.004Z,15.66
2019-04-27T08:10:49.629Z,15.70
2019-04-27T08:13:17.460Z,15.75
2019-04-27T08:15:46.014Z,15.93
2019-04-27T08:18:14.285Z,16.08
2019-04-27T08:20:42.531Z,16.23
2019-04-27T08:23:10.832Z,16.36
2019-04-27T08:25:39.351Z,16.42
2019-04-27T08:28:10.379Z,16.71
2019-04-27T08:30:46.836Z,16.85
2019-04-27T08:33:16.644Z,16.83
2019-04-27T08:35:44.918Z,17.03
2019-04-27T08:38:13.144Z,16.86
2019-04-27T08:40:41.422Z,16.84
2019-04-27T08:43:09.659Z,16.82
2019-04-27T08:45:39.206Z,16.81
2019-04-27T08:48:09.349Z,17.00
2019-04-27T08:50:41.606Z,16.97
2019-04-27T08:53:09.710Z,17.09
2019-04-27T08:55:39.455Z,17.14
2019-04-27T08:58:09.844Z,17.26
2019-04-27T09:00:39.065Z,17.42
2019-04-27T09:03:09.488Z,17.51
2019-04-27T09:05:38.995Z,17.76
2019-04-27T09:08:18.963Z,17.78
2019-04-27T09:10:49.218Z,17.79
2019-04-27T09:13:25.191Z,17.76
2019-04-27T09:15:57.787Z,17.75
2019-04-27T09:18:29.290Z,17.76
2019-04-27T09:21:01.979Z,17.67
2019-04-27T09:23:30.257Z,17.76
2019-04-27T09:25:59.490Z,17.83
2019-04-27T09:28:29.485Z,17.94
2019-04-27T09:30:58.663Z,17.44
2019-04-27T09:33:27.267Z,17.54
2019-04-27T09:35:56.707Z,17.13
2019-04-27T09:38:26.469Z,17.30
2019-04-27T09:40:57.698Z,17.74
2019-04-27T09:43:26.385Z,17.83
2019-04-27T09:45:55.788Z,17.89
2019-04-27T09:48:25.946Z,17.50
2019-04-27T09:50:55.960Z,17.52
2019-04-27T09:53:24.355Z,17.62
2019-04-27T09:55:52.630Z,17.74
2019-04-27T09:58:20.996Z,17.88
2019-04-27T10:00:49.449Z,17.89
2019-04-27T10:03:17.672Z,17.83
2019-04-27T10:05:46.054Z,17.95
2019-04-27T10:08:14.256Z,18.24
2019-04-27T10:10:42.537Z,18.23
2019-04-27T10:13:10.782Z,18.27
2019-04-27T10:15:39.059Z,18.27
2019-04-27T10:18:07.528Z,18.33
2019-04-27T10:20:39.069Z,18.30
2019-04-27T10:23:06.327Z,18.35
2019-04-27T10:25:35.803Z,18.47
2019-04-27T10:28:06.749Z,18.43
2019-04-27T10:30:35.730Z,18.20
2019-04-27T10:33:05.971Z,18.43
2019-04-27T10:35:36.190Z,18.44
2019-04-27T10:38:04.413Z,18.44
2019-04-27T10:40:32.645Z,18.45
2019-04-27T10:43:00.921Z,18.45
2019-04-27T10:45:29.159Z,18.58
2019-04-27T10:47:57.517Z,18.58
2019-04-27T10:50:26.511Z,17.63
2019-04-27T10:52:58.882Z,17.55
2019-04-27T10:55:26.187Z,18.22
2019-04-27T10:57:54.457Z,18.22
2019-04-27T11:00:25.645Z,18.38
2019-04-27T11:02:54.015Z,18.58
2019-04-27T11:05:32.435Z,18.32
2019-04-27T11:08:00.739Z,18.32
2019-04-27T11:10:28.970Z,17.85
2019-04-27T11:12:57.258Z,18.35
2019-04-27T11:15:26.379Z,18.35
2019-04-27T11:17:56.120Z,18.01
2019-04-27T11:20:27.527Z,18.13
2019-04-27T11:23:06.578Z,18.13
2019-04-27T11:25:26.345Z,18.59
2019-04-27T11:27:55.944Z,18.59
2019-04-27T11:30:24.662Z,18.58
2019-04-27T11:32:54.593Z,18.58
2019-04-27T11:35:25.762Z,18.76
2019-04-27T11:37:55.789Z,18.83
2019-04-27T11:40:24.136Z,18.67
2019-04-27T11:42:52.362Z,18.83
2019-04-27T11:45:20.650Z,18.64
2019-04-27T11:47:48.866Z,18.64
2019-04-27T11:50:17.139Z,18.69
2019-04-27T11:52:45.764Z,18.80
2019-04-27T11:55:16.070Z,18.69
2019-04-27T11:57:44.427Z,18.73
2019-04-27T12:00:14.335Z,18.73
2019-04-27T12:02:42.741Z,18.74
2019-04-27T12:05:11.012Z,18.40
2019-04-27T12:07:39.239Z,18.29
2019-04-27T12:10:07.647Z,18.31
2019-04-27T12:12:36.295Z,18.31
2019-04-27T12:15:06.762Z,18.44
2019-04-27T12:17:35.759Z,18.31
2019-04-27T12:20:06.632Z,18.31
2019-04-27T12:22:34.912Z,18.33
2019-04-27T12:25:04.278Z,18.13
2019-04-27T12:27:50.413Z,18.26
2019-04-27T12:30:26.205Z,17.62
2019-04-27T12:32:55.811Z,17.62
2019-04-27T12:35:25.725Z,17.43
2019-04-27T12:37:55.834Z,17.43
2019-04-27T12:40:24.336Z,17.67
2019-04-27T12:42:52.631Z,18.35
2019-04-27T12:45:20.867Z,18.58
2019-04-27T12:47:49.099Z,18.54
2019-04-27T12:50:17.391Z,18.56
2019-04-27T12:52:47.236Z,18.44
2019-04-27T12:55:25.878Z,18.03
2019-04-27T12:58:01.756Z,17.54
2019-04-27T13:00:43.524Z,17.07
2019-04-27T13:03:11.792Z,16.82
2019-04-27T13:05:40.075Z,16.69
2019-04-27T13:08:08.312Z,16.56
2019-04-27T13:10:36.584Z,16.48
2019-04-27T13:13:06.312Z,16.37
2019-04-27T13:15:35.655Z,16.23
2019-04-27T13:18:05.596Z,16.23
2019-04-27T13:20:35.782Z,16.21
2019-04-27T13:23:04.057Z,16.24
2019-04-27T13:25:32.335Z,16.51
2019-04-27T13:28:00.731Z,16.51
2019-04-27T13:30:28.964Z,16.43
2019-04-27T13:32:57.231Z,16.16
2019-04-27T13:35:25.944Z,16.23
2019-04-27T13:37:55.995Z,16.13
2019-04-27T13:40:25.782Z,16.09
2019-04-27T13:42:59.017Z,16.24
2019-04-27T13:45:46.616Z,16.19
2019-04-27T13:48:28.735Z,16.01
2019-04-27T13:51:06.511Z,15.74
2019-04-27T13:53:34.593Z,15.75
2019-04-27T13:56:04.464Z,15.60
2019-04-27T13:58:33.211Z,15.47
2019-04-27T14:01:01.583Z,15.41
2019-04-27T14:03:29.870Z,15.48
2019-04-27T14:05:59.015Z,15.66
2019-04-27T14:08:29.107Z,15.68
2019-04-27T14:10:58.791Z,15.55
2019-04-27T14:13:28.747Z,15.42
2019-04-27T14:15:57.094Z,15.32
2019-04-27T14:18:25.325Z,15.23
2019-04-27T14:20:53.600Z,15.18
2019-04-27T14:23:23.476Z,15.05
2019-04-27T14:25:51.753Z,14.98
2019-04-27T14:28:19.976Z,14.91
2019-04-27T14:30:48.638Z,14.91
2019-04-27T14:33:18.660Z,14.90
2019-04-27T14:35:47.970Z,14.83
2019-04-27T14:38:19.031Z,14.83
2019-04-27T14:40:47.939Z,14.76
2019-04-27T14:43:18.857Z,14.66
2019-04-27T14:45:48.583Z,14.62
2019-04-27T14:48:18.437Z,14.52
2019-04-27T14:50:48.513Z,14.22
2019-04-27T14:53:16.888Z,14.03
2019-04-27T14:55:45.177Z,13.95
2019-04-27T14:58:13.403Z,13.89
2019-04-27T15:00:41.643Z,13.78
2019-04-27T15:03:09.927Z,13.54
2019-04-27T15:05:38.162Z,13.24
2019-04-27T15:08:09.602Z,13.24
2019-04-27T15:10:36.433Z,13.23
2019-04-27T15:13:06.431Z,13.30
2019-04-27T15:15:34.726Z,13.32
2019-04-27T15:18:05.469Z,13.29
2019-04-27T15:20:39.692Z,13.26
2019-04-27T15:23:07.567Z,13.11
2019-04-27T15:25:45.854Z,13.09
2019-04-27T15:28:11.524Z,12.97
2019-04-27T15:30:54.180Z,12.91
2019-04-27T15:33:39.993Z,12.90
2019-04-27T15:36:10.304Z,12.88
2019-04-27T15:39:00.127Z,12.99
2019-04-27T15:41:42.197Z,13.13
2019-04-27T15:44:10.550Z,13.09
2019-04-27T15:46:39.115Z,13.15
2019-04-27T15:49:10.436Z,13.12
2019-04-27T15:51:38.252Z,13.28
2019-04-27T15:54:06.858Z,13.36
2019-04-27T15:56:35.537Z,13.34
2019-04-27T15:59:05.102Z,13.23
2019-04-27T16:01:35.781Z,13.24
2019-04-27T16:04:07.699Z,13.24
2019-04-27T16:06:33.568Z,13.22
2019-04-27T16:09:01.804Z,13.26
2019-04-27T16:11:30.082Z,13.26
2019-04-27T16:13:58.780Z,13.33
2019-04-27T16:16:29.203Z,13.39
2019-04-27T16:18:57.671Z,13.58
2019-04-27T16:21:28.255Z,13.60
2019-04-27T16:23:58.190Z,13.55
2019-04-27T16:26:28.194Z,13.47
2019-04-27T16:28:58.095Z,13.31
2019-04-27T16:31:30.253Z,13.28
2019-04-27T16:33:59.210Z,13.37
2019-04-27T16:36:26.353Z,13.29
2019-04-27T16:38:59.125Z,13.21
2019-04-27T16:41:28.104Z,12.81
2019-04-27T16:43:58.163Z,11.79
2019-04-27T16:46:28.510Z,11.39
2019-04-27T16:48:59.285Z,11.08
2019-04-27T16:51:29.710Z,10.78
2019-04-27T16:53:58.415Z,10.61
2019-04-27T16:56:28.522Z,10.55
2019-04-27T16:59:05.489Z,10.52
2019-04-27T17:01:30.312Z,10.49
2019-04-27T17:03:59.293Z,10.36
2019-04-27T17:06:29.574Z,10.45
2019-04-27T17:09:05.643Z,10.53
2019-04-27T17:11:29.798Z,10.46
2019-04-27T17:14:11.854Z,10.44
2019-04-27T17:16:50.644Z,10.50
2019-04-27T17:19:20.523Z,10.48
2019-04-27T17:21:48.800Z,10.40
2019-04-27T17:24:18.672Z,10.34
2019-04-27T17:26:47.903Z,10.37
2019-04-27T17:29:20.384Z,10.41
2019-04-27T17:31:50.492Z,10.23
2019-04-27T17:34:25.107Z,10.32
2019-04-27T17:36:54.704Z,10.36
2019-04-27T17:39:23.482Z,10.25
2019-04-27T17:41:52.725Z,10.16
2019-04-27T17:44:23.105Z,10.25
2019-04-27T17:46:51.262Z,10.19
2019-04-27T17:49:19.951Z,10.27
2019-04-27T17:51:48.493Z,10.24
2019-04-27T17:54:18.195Z,10.27
2019-04-27T17:56:50.995Z,10.21
2019-04-27T17:59:20.664Z,10.43
2019-04-27T18:01:46.916Z,10.43
2019-04-27T18:04:15.171Z,10.44
2019-04-27T18:06:43.462Z,10.34
2019-04-27T18:09:13.333Z,10.28
2019-04-27T18:11:41.627Z,10.21
2019-04-27T18:14:14.398Z,10.21
2019-04-27T18:16:39.856Z,10.16
2019-04-27T18:19:11.728Z,10.03
2019-04-27T18:21:41.368Z,10.01
2019-04-27T18:24:11.239Z,10.04
2019-04-27T18:26:49.602Z,10.01
2019-04-27T18:29:13.974Z,10.07
2019-04-27T18:31:42.466Z,10.05
2019-04-27T18:34:15.195Z,10.13
2019-04-27T18:36:43.997Z,10.08
2019-04-27T18:39:13.751Z,10.04
2019-04-27T18:41:49.170Z,10.06
2019-04-27T18:44:11.177Z,10.01
2019-04-27T18:46:39.869Z,9.95
2019-04-27T18:49:18.512Z,9.96
2019-04-27T18:51:48.448Z,10.01
2019-04-27T18:54:18.294Z,9.87
2019-04-27T18:56:51.704Z,9.88
2019-04-27T18:59:16.575Z,9.84
2019-04-27T19:01:44.863Z,9.78
2019-04-27T19:04:13.103Z,9.77
2019-04-27T19:06:41.341Z,9.71
2019-04-27T19:09:09.623Z,9.77
2019-04-27T19:11:38.416Z,10.01
2019-04-27T19:14:08.330Z,10.08
2019-04-27T19:16:38.334Z,10.04
2019-04-27T19:19:08.487Z,10.01
2019-04-27T19:21:36.626Z,10.00
2019-04-27T19:24:04.920Z,9.94
2019-04-27T19:26:34.793Z,9.80
2019-04-27T19:29:04.725Z,9.74
2019-04-27T19:31:34.601Z,9.59
2019-04-27T19:34:02.831Z,9.64
2019-04-27T19:36:31.099Z,9.73
2019-04-27T19:38:59.335Z,9.79
2019-04-27T19:41:28.845Z,9.73
2019-04-27T19:43:57.367Z,9.73
2019-04-27T19:46:25.657Z,9.81
2019-04-27T19:48:53.898Z,9.75
2019-04-27T19:51:22.329Z,9.74
2019-04-27T19:53:50.622Z,9.70
2019-04-27T19:56:19.379Z,9.65
2019-04-27T19:58:59.795Z,9.67
2019-04-27T20:01:29.741Z,9.60
2019-04-27T20:03:59.826Z,9.46
2019-04-27T20:06:29.139Z,9.62
2019-04-27T20:08:59.481Z,9.59
2019-04-27T20:11:27.712Z,9.53
2019-04-27T20:13:55.995Z,9.52
2019-04-27T20:16:24.229Z,9.59
2019-04-27T20:18:52.498Z,9.66
2019-04-27T20:21:21.007Z,9.74
2019-04-27T20:23:50.694Z,9.73
2019-04-27T20:26:19.198Z,9.81
2019-04-27T20:28:47.484Z,9.70
2019-04-27T20:31:15.713Z,9.52
2019-04-27T20:33:43.954Z,9.47
2019-04-27T20:36:12.208Z,9.57
2019-04-27T20:38:41.857Z,9.53
2019-04-27T20:41:11.587Z,9.59
2019-04-27T20:43:41.924Z,9.49
2019-04-27T20:46:11.734Z,9.35
2019-04-27T20:48:41.330Z,9.44
2019-04-27T20:51:11.356Z,9.55
2019-04-27T20:53:44.014Z,9.75
2019-04-27T20:56:12.292Z,9.73
2019-04-27T20:58:41.136Z,9.66
2019-04-27T21:01:09.717Z,9.70
2019-04-27T21:03:51.682Z,9.69
2019-04-27T21:06:21.607Z,9.72
2019-04-27T21:08:51.444Z,9.66
2019-04-27T21:11:20.886Z,9.62
2019-04-27T21:13:49.411Z,9.40
2019-04-27T21:16:17.690Z,9.55
2019-04-27T21:18:45.919Z,9.54
2019-04-27T21:21:14.151Z,9.57
2019-04-27T21:23:42.607Z,9.59
2019-04-27T21:26:10.846Z,9.66
2019-04-27T21:28:39.193Z,9.68
2019-04-27T21:31:12.452Z,9.51
2019-04-27T21:33:40.841Z,9.41
2019-04-27T21:36:09.025Z,9.42
2019-04-27T21:38:37.356Z,9.43
2019-04-27T21:41:05.541Z,9.55
2019-04-27T21:43:33.931Z,9.56
2019-04-27T21:46:02.180Z,9.55
2019-04-27T21:48:31.243Z,9.44
2019-04-27T21:51:01.102Z,9.47
2019-04-27T21:53:41.132Z,9.58
2019-04-27T21:56:11.147Z,9.58
2019-04-27T21:58:41.803Z,9.49
2019-04-27T22:01:16.920Z,9.44
2019-04-27T22:03:45.182Z,9.42
2019-04-27T22:06:13.410Z,9.44
2019-04-27T22:08:41.708Z,9.40
2019-04-27T22:11:11.765Z,9.29
2019-04-27T22:13:40.971Z,9.17
2019-04-27T22:16:12.743Z,9.20
2019-04-27T22:18:41.524Z,9.26
2019-04-27T22:21:11.343Z,9.23
2019-04-27T22:23:53.244Z,9.20
2019-04-27T22:26:21.511Z,9.21
2019-04-27T22:28:51.945Z,9.26
2019-04-27T22:31:21.216Z,9.17
2019-04-27T22:33:52.538Z,9.08
2019-04-27T22:36:21.180Z,9.17
2019-04-27T22:38:51.419Z,9.21
2019-04-27T22:41:21.421Z,9.30
2019-04-27T22:44:01.339Z,9.30
2019-04-27T22:46:34.194Z,9.40
2019-04-27T22:49:03.096Z,9.42
2019-04-27T22:51:31.355Z,9.42
2019-04-27T22:54:01.325Z,9.32
2019-04-27T22:56:31.611Z,9.21
2019-04-27T22:59:03.837Z,9.21
2019-04-27T23:01:42.699Z,9.28
2019-04-27T23:04:12.727Z,9.22
2019-04-27T23:06:41.832Z,9.25
2019-04-27T23:09:11.750Z,9.33
2019-04-27T23:11:41.524Z,9.32
2019-04-27T23:14:11.056Z,9.29
2019-04-27T23:16:43.803Z,9.28
2019-04-27T23:19:12.092Z,9.25
2019-04-27T23:21:40.314Z,9.28
2019-04-27T23:24:08.582Z,9.23
2019-04-27T23:26:36.809Z,9.21
2019-04-27T23:29:13.784Z,9.25
2019-04-27T23:31:45.968Z,9.28
2019-04-27T23:34:14.252Z,9.22
2019-04-27T23:36:44.341Z,9.17
2019-04-27T23:39:12.429Z,9.13
2019-04-27T23:41:40.702Z,9.20
2019-04-27T23:44:08.944Z,9.15
2019-04-27T23:46:37.221Z,9.08
2019-04-27T23:49:05.454Z,9.12
2019-04-27T23:51:53.389Z,9.10
2019-04-27T23:54:21.626Z,9.08
2019-04-27T23:56:51.754Z,9.07
2019-04-27T23:59:24.984Z,9.05
